Time,TemperatureF,DewpointF,PressureIn,WindDirection,WindDirectionDegrees,WindSpeedMPH,WindSpeedGustMPH,Humidity,HourlyPrecipIn,Conditions,Clouds,dailyrainin,SoftwareType,DateUTC
2013-06-01 00:00:00,69.6,64.6,29.68,SSE,158,9.8,9.8,84,0.00,,CLR,0.00,VWS V14.01,2013-06-01 04:00:00,
2013-06-01 00:01:00,69.6,64.6,29.68,SSE,158,9.8,9.8,84,0.00,,CLR,0.00,VWS V14.01,2013-06-01 04:01:00,
2013-06-01 00:02:00,69.6,64.6,29.71,SSE,158,9.8,9.8,84,0.00,,CLR,0.00,VWS V14.01,2013-06-01 04:02:00,
2013-06-01 00:04:00,69.6,64.6,29.71,SSE,158,9.8,9.8,84,0.00,,CLR,0.00,VWS V14.01,2013-06-01 04:04:00,
2013-06-01 00:05:00,69.6,64.6,29.71,SSE,158,9.8,9.8,84,0.00,,CLR,0.00,VWS V14.01,2013-06-01 04:05:00,
2013-06-01 00:11:00,69.6,64.6,29.71,SSE,158,9.8,9.8,84,0.00,,CLR,0.00,VWS V14.01,2013-06-01 04:11:00,
2013-06-01 00:16:00,69.8,64.4,29.71,SSE,158,9.8,9.8,83,0.00,,CLR,0.00,VWS V14.01,2013-06-01 04:16:00,
2013-06-01 00:17:00,69.8,64.4,29.71,SSE,158,9.8,9.8,83,0.00,,CLR,0.00,VWS V14.01,2013-06-01 04:17:00,
2013-06-01 00:22:00,69.8,64.4,29.68,SSE,158,9.8,9.8,83,0.00,,CLR,0.00,VWS V14.01,2013-06-01 04:22:00,
2013-06-01 00:27:00,69.8,64.4,29.68,SSE,158,9.8,9.8,83,0.00,,CLR,0.00,VWS V14.01,2013-06-01 04:27:00,
2013-06-01 00:32:00,69.8,64.4,29.68,SSE,158,9.8,9.8,83,0.00,,CLR,0.00,VWS V14.01,2013-06-01 04:32:00,
2013-06-01 00:37:00,69.8,64.4,29.68,SSE,158,9.8,9.8,83,0.00,,CLR,0.00,VWS V14.01,2013-06-01 04:37:00,
2013-06-01 00:42:00,69.8,64.4,29.68,SSE,158,9.8,9.8,83,0.00,,CLR,0.00,VWS V14.01,2013-06-01 04:42:00,
2013-06-01 00:47:00,69.8,64.4,29.68,SSE,158,9.8,9.8,83,0.00,,CLR,0.00,VWS V14.01,2013-06-01 04:47:00,
2013-06-01 00:52:00,69.8,64.4,29.68,SSE,158,9.8,9.8,83,0.00,,CLR,0.00,VWS V14.01,2013-06-01 04:52:00,
2013-06-01 00:57:00,69.8,64.4,29.68,SSE,158,9.8,9.8,83,0.00,,CLR,0.00,VWS V14.01,2013-06-01 04:57:00,
2013-06-01 01:00:00,69.8,64.4,29.68,SSE,158,9.8,9.8,83,0.00,,CLR,0.00,VWS V14.01,2013-06-01 05:00:00,
2013-06-01 01:02:00,69.8,64.4,29.65,SSE,158,9.8,9.8,83,0.00,,CLR,0.00,VWS V14.01,2013-06-01 05:02:00,
2013-06-01 01:07:00,69.8,64.8,29.65,SSE,158,9.8,9.8,84,0.00,,CLR,0.00,VWS V14.01,2013-06-01 05:07:00,
2013-06-01 01:12:00,69.6,64.6,29.65,SSE,158,9.8,9.8,84,0.00,,CLR,0.00,VWS V14.01,2013-06-01 05:12:00,
2013-06-01 01:17:00,69.6,64.9,29.65,SSE,158,9.8,9.8,85,0.00,,CLR,0.00,VWS V14.01,2013-06-01 05:17:00,
2013-06-01 01:22:00,69.6,64.6,29.65,SSE,158,9.8,9.8,84,0.00,,CLR,0.00,VWS V14.01,2013-06-01 05:22:00,
2013-06-01 01:27:00,69.8,64.4,29.65,SSE,158,9.8,9.8,83,0.00,,CLR,0.00,VWS V14.01,2013-06-01 05:27:00,
2013-06-01 01:32:00,69.8,64.4,29.65,SSE,158,9.8,9.8,83,0.00,,CLR,0.00,VWS V14.01,2013-06-01 05:32:00,
2013-06-01 01:37:00,69.8,64.4,29.65,SSE,158,9.8,9.8,83,0.00,,CLR,0.00,VWS V14.01,2013-06-01 05:37:00,
2013-06-01 01:42:00,69.6,64.2,29.65,SSE,158,9.8,9.8,83,0.00,,CLR,0.00,VWS V14.01,2013-06-01 05:42:00,
2013-06-01 01:47:00,69.6,64.2,29.62,SSE,158,9.8,9.8,83,0.00,,CLR,0.00,VWS V14.01,2013-06-01 05:47:00,
2013-06-01 01:52:00,69.6,64.6,29.62,SSE,158,9.8,9.8,84,0.00,,CLR,0.00,VWS V14.01,2013-06-01 05:52:00,
2013-06-01 01:57:00,69.4,64.4,29.62,SSE,158,9.8,9.8,84,0.00,,CLR,0.00,VWS V14.01,2013-06-01 05:57:00,
2013-06-01 02:00:00,69.4,64.4,29.62,SSE,158,9.8,9.8,84,0.00,,CLR,0.00,VWS V14.01,2013-06-01 06:00:00,
2013-06-01 02:02:00,69.4,64.4,29.62,SSE,158,9.8,9.8,84,0.00,,CLR,0.00,VWS V14.01,2013-06-01 06:02:00,
2013-06-01 02:07:00,69.4,64.4,29.62,SSE,158,9.8,9.8,84,0.00,,CLR,0.00,VWS V14.01,2013-06-01 06:07:00,
2013-06-01 02:12:00,69.6,64.6,29.62,SSE,158,9.8,9.8,84,0.00,,CLR,0.00,VWS V14.01,2013-06-01 06:12:00,
2013-06-01 02:17:00,69.6,64.9,29.62,South,180,7.2,9.8,85,0.00,,CLR,0.00,VWS V14.01,2013-06-01 06:17:00,
2013-06-01 02:22:00,69.8,64.8,29.62,SSW,202,6.0,9.8,84,0.00,,CLR,0.00,VWS V14.01,2013-06-01 06:22:00,
2013-06-01 02:27:00,69.8,64.8,29.62,SSW,202,6.0,9.8,84,0.00,,CLR,0.00,VWS V14.01,2013-06-01 06:27:00,
2013-06-01 02:32:00,69.8,64.4,29.62,SSW,202,6.0,9.8,83,0.00,,CLR,0.00,VWS V14.01,2013-06-01 06:32:00,
2013-06-01 02:37:00,69.8,64.1,29.62,SSW,202,6.0,9.8,82,0.00,,CLR,0.00,VWS V14.01,2013-06-01 06:37:00,
2013-06-01 02:42:00,69.8,64.1,29.62,SSW,202,6.0,9.8,82,0.00,,CLR,0.00,VWS V14.01,2013-06-01 06:42:00,
2013-06-01 02:47:00,69.8,63.7,29.62,SSW,202,5.8,9.8,81,0.00,,CLR,0.00,VWS V14.01,2013-06-01 06:47:00,
2013-06-01 02:52:00,69.6,63.5,29.62,SSW,202,5.8,9.8,81,0.00,,CLR,0.00,VWS V14.01,2013-06-01 06:52:00,
2013-06-01 02:57:00,69.6,63.5,29.62,SSW,202,5.8,9.8,81,0.00,,CLR,0.00,VWS V14.01,2013-06-01 06:57:00,
2013-06-01 03:00:00,69.6,63.2,29.62,SSW,202,5.8,9.8,80,0.00,,CLR,0.00,VWS V14.01,2013-06-01 07:00:00,
2013-06-01 03:02:00,69.6,62.8,29.62,SSW,202,5.8,5.8,79,0.00,,CLR,0.00,VWS V14.01,2013-06-01 07:02:00,
2013-06-01 03:07:00,69.6,62.1,29.62,SSW,202,5.8,5.8,77,0.00,,CLR,0.00,VWS V14.01,2013-06-01 07:07:00,
2013-06-01 03:12:00,69.6,62.1,29.62,SSW,202,5.8,5.8,77,0.00,,CLR,0.00,VWS V14.01,2013-06-01 07:12:00,
2013-06-01 03:17:00,69.6,61.7,29.62,SSW,202,5.8,5.8,76,0.00,,CLR,0.00,VWS V14.01,2013-06-01 07:17:00,
2013-06-01 03:22:00,69.4,61.5,29.62,SSW,202,5.8,5.8,76,0.00,,CLR,0.00,VWS V14.01,2013-06-01 07:22:00,
2013-06-01 03:27:00,69.4,61.2,29.62,SSW,202,5.8,5.8,75,0.00,,CLR,0.00,VWS V14.01,2013-06-01 07:27:00,
2013-06-01 03:32:00,69.4,60.8,29.62,SSW,202,5.8,5.8,74,0.00,,CLR,0.00,VWS V14.01,2013-06-01 07:32:00,
2013-06-01 03:38:00,69.6,60.2,29.62,SSW,202,5.8,5.8,72,0.00,,CLR,0.00,VWS V14.01,2013-06-01 07:38:00,
2013-06-01 03:43:00,69.8,60.4,29.62,SSW,202,5.8,5.8,72,0.00,,CLR,0.00,VWS V14.01,2013-06-01 07:43:00,
2013-06-01 03:48:00,69.8,59.6,29.62,SSW,202,5.8,5.8,70,0.00,,CLR,0.00,VWS V14.01,2013-06-01 07:48:00,
2013-06-01 03:53:00,69.8,58.8,29.62,SSW,202,5.8,5.8,68,0.00,,CLR,0.00,VWS V14.01,2013-06-01 07:53:00,
2013-06-01 03:58:00,69.8,58.8,29.62,SSW,202,5.8,5.8,68,0.00,,CLR,0.00,VWS V14.01,2013-06-01 07:58:00,
2013-06-01 04:00:00,70.0,58.5,29.62,SSW,202,5.8,5.8,67,0.00,,CLR,0.00,VWS V14.01,2013-06-01 08:00:00,
2013-06-01 04:03:00,69.8,58.4,29.62,SSW,202,5.8,5.8,67,0.00,,CLR,0.00,VWS V14.01,2013-06-01 08:03:00,
2013-06-01 04:08:00,69.8,58.4,29.62,SSW,202,5.8,5.8,67,0.00,,CLR,0.00,VWS V14.01,2013-06-01 08:08:00,
2013-06-01 04:13:00,69.8,57.9,29.62,SSW,202,5.8,5.8,66,0.00,,CLR,0.00,VWS V14.01,2013-06-01 08:13:00,
2013-06-01 04:18:00,69.6,57.3,29.62,SSW,202,5.8,5.8,65,0.00,,CLR,0.00,VWS V14.01,2013-06-01 08:18:00,
2013-06-01 04:23:00,69.6,56.9,29.62,SSW,202,5.8,5.8,64,0.00,,CLR,0.00,VWS V14.01,2013-06-01 08:23:00,
2013-06-01 04:28:00,69.6,56.9,29.62,SSW,202,5.8,5.8,64,0.00,,CLR,0.00,VWS V14.01,2013-06-01 08:28:00,
2013-06-01 04:33:00,69.4,57.2,29.65,SSW,202,5.8,5.8,65,0.00,,CLR,0.00,VWS V14.01,2013-06-01 08:33:00,
2013-06-01 04:38:00,69.1,57.3,29.65,SSW,202,5.8,5.8,66,0.00,,CLR,0.00,VWS V14.01,2013-06-01 08:38:00,
2013-06-01 04:43:00,68.9,57.1,29.65,SSW,202,5.8,5.8,66,0.00,,CLR,0.00,VWS V14.01,2013-06-01 08:43:00,
2013-06-01 04:48:00,68.9,57.5,29.65,SSW,202,5.8,5.8,67,0.00,,CLR,0.00,VWS V14.01,2013-06-01 08:48:00,
2013-06-01 04:53:00,68.7,57.7,29.65,SSW,202,5.8,5.8,68,0.00,,CLR,0.00,VWS V14.01,2013-06-01 08:53:00,
2013-06-01 04:58:00,68.4,57.8,29.65,SSW,202,5.8,5.8,69,0.00,,CLR,0.00,VWS V14.01,2013-06-01 08:58:00,
2013-06-01 05:00:00,68.4,58.2,29.65,SSW,202,5.8,5.8,70,0.00,,CLR,0.00,VWS V14.01,2013-06-01 09:00:00,
2013-06-01 05:03:00,68.2,58.4,29.65,SSW,202,5.8,5.8,71,0.00,,CLR,0.00,VWS V14.01,2013-06-01 09:03:00,
2013-06-01 05:08:00,67.6,59.4,29.65,SSW,202,5.8,5.8,75,0.00,,CLR,0.00,VWS V14.01,2013-06-01 09:08:00,
2013-06-01 05:13:00,67.3,60.5,29.65,SSW,202,5.8,5.8,79,0.00,,CLR,0.00,VWS V14.01,2013-06-01 09:13:00,
2013-06-01 05:18:00,66.7,61.1,29.68,SSW,202,5.8,5.8,82,0.00,,CLR,0.00,VWS V14.01,2013-06-01 09:18:00,
2013-06-01 05:23:00,66.2,61.9,29.68,SSW,202,5.8,5.8,86,0.00,,CLR,0.00,VWS V14.01,2013-06-01 09:23:00,
2013-06-01 05:28:00,65.8,62.5,29.68,SSW,202,5.8,5.8,89,0.04,,CLR,0.04,VWS V14.01,2013-06-01 09:28:00,
2013-06-01 05:33:00,65.5,62.5,29.65,SSW,202,5.8,5.8,90,0.08,,CLR,0.08,VWS V14.01,2013-06-01 09:33:00,
2013-06-01 05:38:00,65.5,62.8,29.65,SSW,202,5.8,5.8,91,0.08,,CLR,0.21,VWS V14.01,2013-06-01 09:38:00,
2013-06-01 05:43:00,65.3,62.6,29.65,SSW,202,5.8,5.8,91,0.12,,CLR,0.12,VWS V14.01,2013-06-01 09:43:00,
2013-06-01 05:48:00,65.1,62.4,29.62,SSW,202,5.8,5.8,91,0.12,,CLR,0.12,VWS V14.01,2013-06-01 09:48:00,
2013-06-01 05:53:00,65.3,62.6,29.62,SSW,202,5.8,5.8,91,0.12,,CLR,0.12,VWS V14.01,2013-06-01 09:53:00,
2013-06-01 05:58:00,65.1,62.7,29.62,SSW,202,5.8,5.8,92,0.12,,CLR,0.12,VWS V14.01,2013-06-01 09:58:00,
2013-06-01 06:00:00,65.1,62.7,29.62,SSW,202,5.8,5.8,92,0.12,,CLR,0.12,VWS V14.01,2013-06-01 10:00:00,
2013-06-01 06:03:00,65.1,62.7,29.59,SSW,202,5.8,5.8,92,0.12,,CLR,0.12,VWS V14.01,2013-06-01 10:03:00,
2013-06-01 06:08:00,65.1,63.0,29.59,SSW,202,5.8,5.8,93,0.12,,CLR,0.12,VWS V14.01,2013-06-01 10:08:00,
2013-06-01 06:13:00,65.1,62.7,29.59,SSW,202,5.8,5.8,92,0.12,,CLR,0.12,VWS V14.01,2013-06-01 10:13:00,
2013-06-01 06:18:00,64.9,62.6,29.59,SSW,202,5.8,5.8,92,0.12,,CLR,0.12,VWS V14.01,2013-06-01 10:18:00,
2013-06-01 06:23:00,64.9,62.6,29.59,SSW,202,5.8,5.8,92,0.12,,CLR,0.12,VWS V14.01,2013-06-01 10:23:00,
2013-06-01 06:28:00,64.9,62.6,29.59,SSW,202,5.8,5.8,92,0.12,,CLR,0.12,VWS V14.01,2013-06-01 10:28:00,
2013-06-01 06:33:00,64.9,62.9,29.62,SSW,202,5.8,5.8,93,0.12,,CLR,0.12,VWS V14.01,2013-06-01 10:33:00,
2013-06-01 06:38:00,64.9,63.2,29.62,SSW,202,5.8,5.8,94,0.12,,CLR,0.12,VWS V14.01,2013-06-01 10:38:00,
2013-06-01 06:43:00,65.1,63.3,29.62,SSW,202,5.8,5.8,94,0.12,,CLR,0.12,VWS V14.01,2013-06-01 10:43:00,
2013-06-01 06:48:00,65.1,63.7,29.62,SSW,202,5.8,5.8,95,0.12,,CLR,0.12,VWS V14.01,2013-06-01 10:48:00,
2013-06-01 06:53:00,65.7,63.9,29.62,SSW,202,5.8,5.8,94,0.12,,CLR,0.12,VWS V14.01,2013-06-01 10:53:00,
2013-06-01 06:58:00,65.7,63.3,29.62,SSW,202,5.8,5.8,92,0.12,,CLR,0.12,VWS V14.01,2013-06-01 10:58:00,
2013-06-01 07:00:00,65.8,63.1,29.62,SSW,202,5.8,5.8,91,0.12,,CLR,0.12,VWS V14.01,2013-06-01 11:00:00,
2013-06-01 07:03:00,66.0,63.3,29.62,SSW,202,5.8,5.8,91,0.00,,CLR,0.12,VWS V14.01,2013-06-01 11:03:00,
2013-06-01 07:08:00,66.2,63.2,29.62,SSW,202,5.8,5.8,90,0.00,,CLR,0.12,VWS V14.01,2013-06-01 11:08:00,
2013-06-01 07:13:00,66.7,63.1,29.62,SSW,202,5.8,5.8,88,0.00,,CLR,0.12,VWS V14.01,2013-06-01 11:13:00,
2013-06-01 07:18:00,66.9,62.6,29.62,SSW,202,5.8,5.8,86,0.00,,CLR,0.12,VWS V14.01,2013-06-01 11:18:00,
2013-06-01 07:23:00,67.1,62.8,29.62,SSW,202,5.8,5.8,86,0.00,,CLR,0.12,VWS V14.01,2013-06-01 11:23:00,
2013-06-01 07:28:00,67.5,62.8,29.62,SSW,202,5.8,5.8,85,0.00,,CLR,0.12,VWS V14.01,2013-06-01 11:28:00,
2013-06-01 07:33:00,67.8,62.8,29.62,SSW,202,5.8,5.8,84,0.00,,CLR,0.12,VWS V14.01,2013-06-01 11:33:00,
2013-06-01 07:38:00,67.6,62.3,29.62,SSW,202,5.8,5.8,83,0.00,,CLR,0.12,VWS V14.01,2013-06-01 11:38:00,
2013-06-01 07:43:00,67.5,62.5,29.62,SSW,202,5.8,5.8,84,0.00,,CLR,0.12,VWS V14.01,2013-06-01 11:43:00,
2013-06-01 07:49:00,67.1,62.5,29.62,SSW,202,5.8,5.8,85,0.00,,CLR,0.12,VWS V14.01,2013-06-01 11:49:00,
2013-06-01 07:54:00,66.9,62.6,29.62,SSW,202,5.8,5.8,86,0.00,,CLR,0.12,VWS V14.01,2013-06-01 11:54:00,
2013-06-01 07:59:00,66.9,62.6,29.62,SSW,202,5.8,5.8,86,0.00,,CLR,0.12,VWS V14.01,2013-06-01 11:59:00,
2013-06-01 08:00:00,66.9,62.6,29.62,SSW,202,5.8,5.8,86,0.00,,CLR,0.12,VWS V14.01,2013-06-01 12:00:00,
2013-06-01 08:04:00,66.9,62.3,29.62,SSW,202,5.8,5.8,85,0.00,,CLR,0.12,VWS V14.01,2013-06-01 12:04:00,
2013-06-01 08:09:00,66.9,61.9,29.62,SSW,202,5.8,5.8,84,0.00,,CLR,0.12,VWS V14.01,2013-06-01 12:09:00,
2013-06-01 08:14:00,66.7,61.8,29.62,SSW,202,5.8,5.8,84,0.00,,CLR,0.12,VWS V14.01,2013-06-01 12:14:00,
2013-06-01 08:19:00,66.7,61.8,29.59,SSW,202,5.8,5.8,84,0.00,,CLR,0.12,VWS V14.01,2013-06-01 12:19:00,
2013-06-01 08:24:00,66.7,61.4,29.59,SSW,202,5.8,5.8,83,0.00,,CLR,0.12,VWS V14.01,2013-06-01 12:24:00,
2013-06-01 08:29:00,66.6,60.9,29.59,SSW,202,5.8,5.8,82,0.00,,CLR,0.12,VWS V14.01,2013-06-01 12:29:00,
2013-06-01 08:34:00,66.7,61.1,29.56,SSW,202,5.8,5.8,82,0.00,,CLR,0.12,VWS V14.01,2013-06-01 12:34:00,
2013-06-01 08:39:00,66.9,60.9,29.56,SSW,202,5.8,5.8,81,0.00,,CLR,0.12,VWS V14.01,2013-06-01 12:39:00,
2013-06-01 08:44:00,67.5,61.4,29.56,SSW,202,5.8,5.8,81,0.00,,CLR,0.12,VWS V14.01,2013-06-01 12:44:00,
2013-06-01 08:49:00,67.5,61.1,29.59,SSW,202,5.8,5.8,80,0.00,,CLR,0.12,VWS V14.01,2013-06-01 12:49:00,
2013-06-01 08:54:00,67.8,61.1,29.59,SSW,202,5.8,5.8,79,0.00,,CLR,0.12,VWS V14.01,2013-06-01 12:54:00,
2013-06-01 08:59:00,67.8,60.7,29.59,SSW,202,5.8,5.8,78,0.00,,CLR,0.12,VWS V14.01,2013-06-01 12:59:00,
2013-06-01 09:00:00,67.8,61.1,29.59,SSW,202,5.8,5.8,79,0.00,,CLR,0.12,VWS V14.01,2013-06-01 13:00:00,
2013-06-01 09:04:00,67.8,61.1,29.59,SSW,202,5.8,5.8,79,0.00,,CLR,0.12,VWS V14.01,2013-06-01 13:04:00,
2013-06-01 09:09:00,67.8,61.4,29.59,SSW,202,5.8,5.8,80,0.00,,CLR,0.12,VWS V14.01,2013-06-01 13:09:00,
2013-06-01 09:14:00,67.8,61.4,29.59,SSW,202,5.8,5.8,80,0.00,,CLR,0.12,VWS V14.01,2013-06-01 13:14:00,
2013-06-01 09:19:00,68.2,61.8,29.59,SSW,202,5.8,5.8,80,0.00,,CLR,0.12,VWS V14.01,2013-06-01 13:19:00,
2013-06-01 09:24:00,68.5,62.1,29.59,SSW,202,5.8,5.8,80,0.00,,CLR,0.12,VWS V14.01,2013-06-01 13:24:00,
2013-06-01 09:29:00,68.5,62.1,29.59,SSW,202,5.8,5.8,80,0.00,,CLR,0.12,VWS V14.01,2013-06-01 13:29:00,
2013-06-01 09:34:00,68.7,62.0,29.62,SSW,202,5.8,5.8,79,0.00,,CLR,0.12,VWS V14.01,2013-06-01 13:34:00,
2013-06-01 09:39:00,71.1,63.1,29.62,SSW,202,5.8,5.8,76,0.00,,CLR,0.12,VWS V14.01,2013-06-01 13:39:00,
2013-06-01 09:44:00,71.1,63.1,29.62,SSW,202,5.8,5.8,76,0.00,,CLR,0.12,VWS V14.01,2013-06-01 13:44:00,
2013-06-01 09:49:00,70.5,62.2,29.62,SSW,202,5.8,5.8,75,0.00,,CLR,0.12,VWS V14.01,2013-06-01 13:49:00,
2013-06-01 09:54:00,70.0,61.3,29.62,SSW,202,5.8,5.8,74,0.00,,CLR,0.12,VWS V14.01,2013-06-01 13:54:00,
2013-06-01 09:59:00,70.0,61.7,29.62,SSW,202,5.8,5.8,75,0.00,,CLR,0.12,VWS V14.01,2013-06-01 13:59:00,
2013-06-01 10:00:00,70.2,61.9,29.62,SSW,202,5.8,5.8,75,0.00,,CLR,0.12,VWS V14.01,2013-06-01 14:00:00,
2013-06-01 10:04:00,70.0,61.3,29.62,SSW,202,5.8,5.8,74,0.00,,CLR,0.12,VWS V14.01,2013-06-01 14:04:00,
2013-06-01 10:09:00,70.7,62.8,29.62,SSW,202,5.8,5.8,76,0.00,,CLR,0.12,VWS V14.01,2013-06-01 14:09:00,
2013-06-01 10:14:00,71.2,61.4,29.62,SSW,202,5.8,5.8,71,0.00,,CLR,0.12,VWS V14.01,2013-06-01 14:14:00,
2013-06-01 10:19:00,72.1,61.8,29.62,SSW,202,5.8,5.8,70,0.00,,CLR,0.12,VWS V14.01,2013-06-01 14:19:00,
2013-06-01 10:24:00,72.5,61.3,29.62,SSW,202,5.8,5.8,68,0.00,,CLR,0.12,VWS V14.01,2013-06-01 14:24:00,
2013-06-01 10:29:00,71.6,60.1,29.62,SSW,202,5.8,5.8,67,0.00,,CLR,0.12,VWS V14.01,2013-06-01 14:29:00,
2013-06-01 10:34:00,72.1,61.8,29.62,SSW,202,5.8,5.8,70,0.00,,CLR,0.12,VWS V14.01,2013-06-01 14:34:00,
2013-06-01 10:39:00,72.5,60.9,29.62,SSW,202,5.8,5.8,67,0.00,,CLR,0.12,VWS V14.01,2013-06-01 14:39:00,
2013-06-01 10:44:00,73.8,62.1,29.62,SSW,202,5.8,5.8,67,0.00,,CLR,0.12,VWS V14.01,2013-06-01 14:44:00,
2013-06-01 10:49:00,73.0,60.6,29.62,SSW,202,5.8,5.8,65,0.00,,CLR,0.12,VWS V14.01,2013-06-01 14:49:00,
2013-06-01 10:54:00,73.2,60.8,29.62,SSW,202,5.8,5.8,65,0.00,,CLR,0.12,VWS V14.01,2013-06-01 14:54:00,
2013-06-01 10:59:00,73.8,60.8,29.62,SSW,202,5.8,5.8,64,0.00,,CLR,0.12,VWS V14.01,2013-06-01 14:59:00,
2013-06-01 11:00:00,73.8,60.8,29.62,SSW,202,5.8,5.8,64,0.00,,CLR,0.12,VWS V14.01,2013-06-01 15:00:00,
2013-06-01 11:04:00,75.7,63.2,29.62,SSW,202,5.8,5.8,65,0.00,,CLR,0.21,VWS V14.01,2013-06-01 15:04:00,
2013-06-01 11:09:00,77.0,62.5,29.62,SSW,202,5.8,5.8,61,0.00,,CLR,0.12,VWS V14.01,2013-06-01 15:09:00,
2013-06-01 11:14:00,76.5,60.6,29.62,SSW,202,5.8,5.8,58,0.00,,CLR,0.12,VWS V14.01,2013-06-01 15:14:00,
2013-06-01 11:20:00,77.0,60.6,29.62,SSW,202,5.8,5.8,57,0.00,,CLR,0.12,VWS V14.01,2013-06-01 15:20:00,
2013-06-01 11:25:00,77.5,59.6,29.62,SSW,202,5.8,5.8,54,0.00,,CLR,0.12,VWS V14.01,2013-06-01 15:25:00,
2013-06-01 11:30:00,77.9,59.4,29.62,SSW,202,5.8,5.8,53,0.00,,CLR,0.12,VWS V14.01,2013-06-01 15:30:00,
2013-06-01 11:35:00,78.6,60.6,29.62,SSW,202,5.8,5.8,54,0.00,,CLR,0.12,VWS V14.01,2013-06-01 15:35:00,
2013-06-01 11:40:00,77.7,55.9,29.62,SSW,202,5.8,5.8,47,0.00,,CLR,0.12,VWS V14.01,2013-06-01 15:40:00,
2013-06-01 11:45:00,76.6,55.5,29.62,SSW,202,5.8,5.8,48,0.00,,CLR,0.12,VWS V14.01,2013-06-01 15:45:00,
2013-06-01 11:50:00,76.8,57.9,29.62,SSW,202,5.8,5.8,52,0.00,,CLR,0.12,VWS V14.01,2013-06-01 15:50:00,
2013-06-01 11:55:00,77.5,58.5,29.62,SSW,202,5.8,5.8,52,0.00,,CLR,0.12,VWS V14.01,2013-06-01 15:55:00,
2013-06-01 12:00:00,77.4,58.9,29.62,SSW,202,5.8,5.8,53,0.00,,CLR,0.12,VWS V14.01,2013-06-01 16:00:00,
2013-06-01 12:05:00,75.7,55.2,29.59,SSW,202,5.8,5.8,49,0.00,,CLR,0.12,VWS V14.01,2013-06-01 16:05:00,
2013-06-01 12:10:00,76.5,59.6,29.59,SSW,202,5.8,5.8,56,0.00,,CLR,0.12,VWS V14.01,2013-06-01 16:10:00,
2013-06-01 12:15:00,75.6,55.6,29.59,SSW,202,5.8,5.8,50,0.00,,CLR,0.12,VWS V14.01,2013-06-01 16:15:00,
2013-06-01 12:20:00,76.3,58.4,29.62,SSW,202,5.8,5.8,54,0.00,,CLR,0.12,VWS V14.01,2013-06-01 16:20:00,
2013-06-01 12:25:00,75.6,58.8,29.62,SSW,202,5.8,5.8,56,0.00,,CLR,0.12,VWS V14.01,2013-06-01 16:25:00,
2013-06-01 12:30:00,75.7,59.0,29.62,SSW,202,5.8,5.8,56,0.00,,CLR,0.12,VWS V14.01,2013-06-01 16:30:00,
2013-06-01 12:35:00,76.8,58.9,29.62,SSW,202,5.8,5.8,54,0.00,,CLR,0.12,VWS V14.01,2013-06-01 16:35:00,
2013-06-01 12:40:00,77.2,56.6,29.62,SSW,202,5.8,5.8,49,0.00,,CLR,0.12,VWS V14.01,2013-06-01 16:40:00,
2013-06-01 12:45:00,77.2,57.1,29.62,SSW,202,5.8,5.8,50,0.00,,CLR,0.12,VWS V14.01,2013-06-01 16:45:00,
2013-06-01 12:50:00,77.7,58.7,29.62,SSW,202,5.8,5.8,52,0.00,,CLR,0.12,VWS V14.01,2013-06-01 16:50:00,
2013-06-01 12:55:00,78.6,60.6,29.62,SSW,202,5.8,5.8,54,0.00,,CLR,0.12,VWS V14.01,2013-06-01 16:55:00,
2013-06-01 13:00:00,79.0,58.2,29.62,SSW,202,5.8,5.8,49,0.00,,CLR,0.12,VWS V14.01,2013-06-01 17:00:00,
2013-06-01 13:05:00,78.3,58.1,29.62,SSW,202,5.8,5.8,50,0.00,,CLR,0.12,VWS V14.01,2013-06-01 17:05:00,
2013-06-01 13:10:00,79.0,59.9,29.62,SSW,202,5.8,5.8,52,0.00,,CLR,0.12,VWS V14.01,2013-06-01 17:10:00,
2013-06-01 13:15:00,78.8,56.9,29.62,SSW,202,5.8,5.8,47,0.00,,CLR,0.12,VWS V14.01,2013-06-01 17:15:00,
2013-06-01 13:20:00,78.6,60.1,29.62,SSW,202,5.8,5.8,53,0.00,,CLR,0.12,VWS V14.01,2013-06-01 17:20:00,
2013-06-01 13:25:00,77.7,57.6,29.62,SSW,202,5.8,5.8,50,0.00,,CLR,0.12,VWS V14.01,2013-06-01 17:25:00,
2013-06-01 13:30:00,77.5,57.5,29.62,SSW,202,5.8,5.8,50,0.00,,CLR,0.12,VWS V14.01,2013-06-01 17:30:00,
2013-06-01 13:35:00,77.5,56.9,29.62,SSW,202,5.8,5.8,49,0.00,,CLR,0.12,VWS V14.01,2013-06-01 17:35:00,
2013-06-01 13:40:00,77.7,57.1,29.62,SSW,202,5.8,5.8,49,0.00,,CLR,0.12,VWS V14.01,2013-06-01 17:40:00,
2013-06-01 13:45:00,78.8,59.7,29.62,SSW,202,5.8,5.8,52,0.00,,CLR,0.12,VWS V14.01,2013-06-01 17:45:00,
2013-06-01 13:50:00,78.8,55.7,29.62,SSW,202,5.8,5.8,45,0.00,,CLR,0.12,VWS V14.01,2013-06-01 17:50:00,
2013-06-01 13:55:00,79.0,55.2,29.62,SSW,202,5.8,5.8,44,0.00,,CLR,0.12,VWS V14.01,2013-06-01 17:55:00,
2013-06-01 14:00:00,79.5,58.1,29.62,SSW,202,5.8,5.8,48,0.00,,CLR,0.12,VWS V14.01,2013-06-01 18:00:00,
2013-06-01 14:05:00,79.0,55.2,29.62,SSW,202,5.8,5.8,44,0.00,,CLR,0.12,VWS V14.01,2013-06-01 18:05:00,
2013-06-01 14:10:00,79.0,55.8,29.62,SSW,202,5.8,5.8,45,0.00,,CLR,0.12,VWS V14.01,2013-06-01 18:10:00,
2013-06-01 14:15:00,79.2,54.8,29.62,SSW,202,5.8,5.8,43,0.00,,CLR,0.12,VWS V14.01,2013-06-01 18:15:00,
2013-06-01 14:20:00,79.0,55.2,29.62,SSW,202,5.8,5.8,44,0.00,,CLR,0.12,VWS V14.01,2013-06-01 18:20:00,
2013-06-01 14:25:00,78.6,55.5,29.62,SSW,202,5.8,5.8,45,0.00,,CLR,0.12,VWS V14.01,2013-06-01 18:25:00,
2013-06-01 14:30:00,78.4,53.5,29.62,SSW,202,5.8,5.8,42,0.00,,CLR,0.12,VWS V14.01,2013-06-01 18:30:00,
2013-06-01 14:35:00,80.2,58.8,29.62,SSW,202,5.8,5.8,48,0.00,,CLR,0.12,VWS V14.01,2013-06-01 18:35:00,
2013-06-01 14:40:00,79.5,55.7,29.62,SSW,202,5.8,5.8,44,0.00,,CLR,0.12,VWS V14.01,2013-06-01 18:40:00,
2013-06-01 14:45:00,79.3,56.2,29.62,SSW,202,5.8,5.8,45,0.00,,CLR,0.12,VWS V14.01,2013-06-01 18:45:00,
2013-06-01 14:50:00,79.0,55.2,29.62,SSW,202,5.8,5.8,44,0.00,,CLR,0.12,VWS V14.01,2013-06-01 18:50:00,
2013-06-01 14:56:00,79.2,56.0,29.62,SSW,202,5.8,5.8,45,0.00,,CLR,0.12,VWS V14.01,2013-06-01 18:56:00,
2013-06-01 15:00:00,79.7,57.1,29.62,SSW,202,5.8,5.8,46,0.00,,CLR,0.12,VWS V14.01,2013-06-01 19:00:00,
2013-06-01 15:01:00,79.9,55.4,29.62,SSW,202,5.8,5.8,43,0.00,,CLR,0.12,VWS V14.01,2013-06-01 19:01:00,
2013-06-01 15:06:00,80.2,55.7,29.62,SSW,202,5.8,5.8,43,0.00,,CLR,0.12,VWS V14.01,2013-06-01 19:06:00,
2013-06-01 15:11:00,80.2,58.2,29.62,SSW,202,5.8,5.8,47,0.00,,CLR,0.12,VWS V14.01,2013-06-01 19:11:00,
2013-06-01 15:16:00,79.7,54.6,29.62,SSW,202,5.8,5.8,42,0.00,,CLR,0.12,VWS V14.01,2013-06-01 19:16:00,
2013-06-01 15:21:00,79.3,55.6,29.62,SSW,202,5.8,5.8,44,0.00,,CLR,0.12,VWS V14.01,2013-06-01 19:21:00,
2013-06-01 15:26:00,79.9,56.0,29.62,WNW,292,10.1,10.1,44,0.00,,CLR,0.12,VWS V14.01,2013-06-01 19:26:00,
2013-06-01 15:31:00,80.6,59.1,29.62,WNW,292,10.1,10.1,48,0.00,,CLR,0.12,VWS V14.01,2013-06-01 19:31:00,
2013-06-01 15:36:00,79.9,54.1,29.62,WNW,292,10.1,10.1,41,0.00,,CLR,0.12,VWS V14.01,2013-06-01 19:36:00,
2013-06-01 15:41:00,80.2,57.0,29.62,WNW,292,10.1,10.1,45,0.00,,CLR,0.12,VWS V14.01,2013-06-01 19:41:00,
2013-06-01 15:46:00,79.9,57.9,29.62,WNW,292,10.1,10.1,47,0.00,,CLR,0.12,VWS V14.01,2013-06-01 19:46:00,
2013-06-01 15:51:00,79.0,54.6,29.59,WNW,292,10.1,10.1,43,0.00,,CLR,0.12,VWS V14.01,2013-06-01 19:51:00,
2013-06-01 15:56:00,78.3,55.2,29.59,WNW,292,10.1,10.1,45,0.00,,CLR,0.12,VWS V14.01,2013-06-01 19:56:00,
2013-06-01 16:00:00,77.9,55.5,29.59,WNW,292,10.1,10.1,46,0.00,,CLR,0.12,VWS V14.01,2013-06-01 20:00:00,
2013-06-01 16:01:00,77.9,56.1,29.59,WNW,292,10.1,10.1,47,0.00,,CLR,0.12,VWS V14.01,2013-06-01 20:01:00,
2013-06-01 16:06:00,77.7,57.1,29.59,WNW,292,10.1,10.1,49,0.00,,CLR,0.12,VWS V14.01,2013-06-01 20:06:00,
2013-06-01 16:11:00,77.7,57.1,29.59,WNW,292,10.1,10.1,49,0.00,,CLR,0.12,VWS V14.01,2013-06-01 20:11:00,
2013-06-01 16:16:00,77.7,57.6,29.59,WNW,292,10.1,10.1,50,0.00,,CLR,0.12,VWS V14.01,2013-06-01 20:16:00,
2013-06-01 16:21:00,77.5,56.9,29.62,WNW,292,10.1,10.1,49,0.00,,CLR,0.12,VWS V14.01,2013-06-01 20:21:00,
2013-06-01 16:26:00,77.2,56.0,29.62,WNW,292,10.1,10.1,48,0.00,,CLR,0.12,VWS V14.01,2013-06-01 20:26:00,
2013-06-01 16:31:00,77.0,55.8,29.62,WNW,292,10.1,10.1,48,0.00,,CLR,0.12,VWS V14.01,2013-06-01 20:31:00,
2013-06-01 16:36:00,76.8,56.8,29.62,WNW,292,10.1,10.1,50,0.00,,CLR,0.12,VWS V14.01,2013-06-01 20:36:00,
2013-06-01 16:41:00,76.5,57.0,29.62,WNW,292,10.1,10.1,51,0.00,,CLR,0.12,VWS V14.01,2013-06-01 20:41:00,
2013-06-01 16:46:00,76.3,56.3,29.62,WNW,292,10.1,10.1,50,0.00,,CLR,0.12,VWS V14.01,2013-06-01 20:46:00,
2013-06-01 16:51:00,76.3,57.4,29.62,WNW,292,10.1,10.1,52,0.00,,CLR,0.12,VWS V14.01,2013-06-01 20:51:00,
2013-06-01 16:56:00,76.5,57.5,29.62,WNW,292,10.1,10.1,52,0.00,,CLR,0.12,VWS V14.01,2013-06-01 20:56:00,
2013-06-01 17:00:00,76.6,57.2,29.62,WNW,292,10.1,10.1,51,0.00,,CLR,0.12,VWS V14.01,2013-06-01 21:00:00,
2013-06-01 17:01:00,76.6,57.7,29.62,WNW,292,10.1,10.1,52,0.00,,CLR,0.12,VWS V14.01,2013-06-01 21:01:00,
2013-06-01 17:06:00,76.8,56.8,29.59,WNW,292,10.1,10.1,50,0.00,,CLR,0.12,VWS V14.01,2013-06-01 21:06:00,
2013-06-01 17:11:00,77.0,57.5,29.59,WNW,292,10.1,10.1,51,0.00,,CLR,0.12,VWS V14.01,2013-06-01 21:11:00,
2013-06-01 17:16:00,77.2,57.7,29.59,WNW,292,10.1,10.1,51,0.00,,CLR,0.12,VWS V14.01,2013-06-01 21:16:00,
2013-06-01 17:21:00,77.4,57.3,29.59,WNW,292,10.1,10.1,50,0.00,,CLR,0.12,VWS V14.01,2013-06-01 21:21:00,
2013-06-01 17:26:00,77.4,57.3,29.59,WNW,292,10.1,10.1,50,0.00,,CLR,0.12,VWS V14.01,2013-06-01 21:26:00,
2013-06-01 17:31:00,77.5,58.5,29.59,WNW,292,10.1,10.1,52,0.00,,CLR,0.12,VWS V14.01,2013-06-01 21:31:00,
2013-06-01 17:36:00,77.7,59.8,29.59,WNW,292,10.1,10.1,54,0.00,,CLR,0.12,VWS V14.01,2013-06-01 21:36:00,
2013-06-01 17:41:00,77.0,57.0,29.59,WNW,292,10.1,10.1,50,0.00,,CLR,0.12,VWS V14.01,2013-06-01 21:41:00,
2013-06-01 17:46:00,76.6,57.2,29.59,WNW,292,10.1,10.1,51,0.00,,CLR,0.12,VWS V14.01,2013-06-01 21:46:00,
2013-06-01 17:51:00,76.5,56.5,29.62,WNW,292,10.1,10.1,50,0.00,,CLR,0.12,VWS V14.01,2013-06-01 21:51:00,
2013-06-01 17:56:00,76.3,56.3,29.62,WNW,292,10.1,10.1,50,0.00,,CLR,0.12,VWS V14.01,2013-06-01 21:56:00,
2013-06-01 18:00:00,76.1,57.7,29.62,WNW,292,10.1,10.1,53,0.00,,CLR,0.12,VWS V14.01,2013-06-01 22:00:00,
2013-06-01 18:01:00,75.9,57.6,29.62,WNW,292,10.1,10.1,53,0.00,,CLR,0.12,VWS V14.01,2013-06-01 22:01:00,
2013-06-01 18:06:00,75.7,56.9,29.59,WNW,292,10.1,10.1,52,0.00,,CLR,0.12,VWS V14.01,2013-06-01 22:06:00,
2013-06-01 18:11:00,75.4,57.1,29.59,WNW,292,10.1,10.1,53,0.00,,CLR,0.12,VWS V14.01,2013-06-01 22:11:00,
2013-06-01 18:16:00,75.2,56.4,29.59,WNW,292,10.1,10.1,52,0.00,,CLR,0.12,VWS V14.01,2013-06-01 22:16:00,
2013-06-01 18:21:00,75.0,56.8,29.59,WNW,292,10.1,10.1,53,0.00,,CLR,0.12,VWS V14.01,2013-06-01 22:21:00,
2013-06-01 18:27:00,74.7,57.4,29.59,WNW,292,10.1,10.1,55,0.00,,CLR,0.12,VWS V14.01,2013-06-01 22:27:00,
2013-06-01 18:32:00,74.5,58.8,29.59,WNW,292,10.1,10.1,58,0.00,,CLR,0.12,VWS V14.01,2013-06-01 22:32:00,
2013-06-01 18:37:00,74.3,58.1,29.59,WNW,292,10.1,10.1,57,0.00,,CLR,0.12,VWS V14.01,2013-06-01 22:37:00,
2013-06-01 18:42:00,74.1,56.9,29.59,WNW,292,10.1,10.1,55,0.00,,CLR,0.12,VWS V14.01,2013-06-01 22:42:00,
2013-06-01 18:47:00,73.9,57.3,29.59,WNW,292,10.1,10.1,56,0.00,,CLR,0.12,VWS V14.01,2013-06-01 22:47:00,
2013-06-01 18:52:00,73.4,57.7,29.56,WNW,292,10.1,10.1,58,0.00,,CLR,0.12,VWS V14.01,2013-06-01 22:52:00,
2013-06-01 18:57:00,73.2,56.6,29.56,WNW,292,10.1,10.1,56,0.00,,CLR,0.12,VWS V14.01,2013-06-01 22:57:00,
2013-06-01 19:00:00,73.0,56.9,29.56,WNW,292,10.1,10.1,57,0.00,,CLR,0.12,VWS V14.01,2013-06-01 23:00:00,
2013-06-01 19:02:00,73.0,56.9,29.56,WNW,292,10.1,10.1,57,0.00,,CLR,0.12,VWS V14.01,2013-06-01 23:02:00,
2013-06-01 19:07:00,73.0,57.9,29.59,SW,225,10.7,10.7,59,0.00,,CLR,0.12,VWS V14.01,2013-06-01 23:07:00,
2013-06-01 19:12:00,73.0,58.3,29.59,SW,225,10.7,10.7,60,0.00,,CLR,0.12,VWS V14.01,2013-06-01 23:12:00,
2013-06-01 19:17:00,72.9,58.2,29.59,SW,225,10.7,10.7,60,0.00,,CLR,0.12,VWS V14.01,2013-06-01 23:17:00,
2013-06-01 19:22:00,72.9,59.1,29.59,SW,225,10.7,10.7,62,0.00,,CLR,0.12,VWS V14.01,2013-06-01 23:22:00,
2013-06-01 19:27:00,72.7,58.9,29.59,SW,225,10.7,10.7,62,0.00,,CLR,0.12,VWS V14.01,2013-06-01 23:27:00,
2013-06-01 19:32:00,72.3,58.1,29.59,SW,225,10.7,10.7,61,0.00,,CLR,0.12,VWS V14.01,2013-06-01 23:32:00,
2013-06-01 19:37:00,72.1,57.5,29.59,SW,225,10.7,10.7,60,0.00,,CLR,0.12,VWS V14.01,2013-06-01 23:37:00,
2013-06-01 19:42:00,71.8,57.2,29.59,SW,225,10.7,10.7,60,0.00,,CLR,0.12,VWS V14.01,2013-06-01 23:42:00,
2013-06-01 19:47:00,71.6,56.5,29.59,SW,225,10.7,10.7,59,0.00,,CLR,0.12,VWS V14.01,2013-06-01 23:47:00,
2013-06-01 19:52:00,71.6,57.5,29.59,SW,225,10.7,10.7,61,0.00,,CLR,0.12,VWS V14.01,2013-06-01 23:52:00,
2013-06-01 19:57:00,71.2,58.0,29.59,SW,225,10.7,10.7,63,0.00,,CLR,0.12,VWS V14.01,2013-06-01 23:57:00,
2013-06-01 20:00:00,71.2,58.5,29.59,SW,225,10.7,10.7,64,0.00,,CLR,0.12,VWS V14.01,2013-06-02 00:00:00,
2013-06-01 20:02:00,71.1,58.3,29.59,SW,225,10.7,10.7,64,0.00,,CLR,0.12,VWS V14.01,2013-06-02 00:02:00,
2013-06-01 20:07:00,71.1,57.4,29.59,SW,225,10.7,10.7,62,0.00,,CLR,0.12,VWS V14.01,2013-06-02 00:07:00,
2013-06-01 20:12:00,70.9,57.2,29.59,SW,225,10.7,10.7,62,0.00,,CLR,0.12,VWS V14.01,2013-06-02 00:12:00,
2013-06-01 20:17:00,70.7,57.1,29.59,SW,225,10.7,10.7,62,0.00,,CLR,0.12,VWS V14.01,2013-06-02 00:17:00,
2013-06-01 20:22:00,70.7,57.5,29.59,SW,225,10.7,10.7,63,0.00,,CLR,0.12,VWS V14.01,2013-06-02 00:22:00,
2013-06-01 20:27:00,70.5,56.9,29.59,SW,225,10.7,10.7,62,0.00,,CLR,0.12,VWS V14.01,2013-06-02 00:27:00,
2013-06-01 20:32:00,70.5,57.3,29.59,SW,225,10.7,10.7,63,0.00,,CLR,0.12,VWS V14.01,2013-06-02 00:32:00,
2013-06-01 20:37:00,70.3,57.2,29.56,SW,225,10.7,10.7,63,0.00,,CLR,0.12,VWS V14.01,2013-06-02 00:37:00,
2013-06-01 20:42:00,70.2,57.9,29.56,SW,225,10.7,10.7,65,0.00,,CLR,0.12,VWS V14.01,2013-06-02 00:42:00,
2013-06-01 20:47:00,70.0,57.3,29.56,SW,225,10.7,10.7,64,0.00,,CLR,0.12,VWS V14.01,2013-06-02 00:47:00,
2013-06-01 20:52:00,69.8,57.5,29.56,SW,225,10.7,10.7,65,0.00,,CLR,0.12,VWS V14.01,2013-06-02 00:52:00,
2013-06-01 20:57:00,69.8,57.9,29.56,SW,225,10.7,10.7,66,0.00,,CLR,0.12,VWS V14.01,2013-06-02 00:57:00,
2013-06-01 21:00:00,69.6,58.2,29.56,SW,225,10.7,10.7,67,0.00,,CLR,0.12,VWS V14.01,2013-06-02 01:00:00,
2013-06-01 21:02:00,69.6,57.8,29.56,SW,225,10.7,10.7,66,0.00,,CLR,0.12,VWS V14.01,2013-06-02 01:02:00,
2013-06-01 21:07:00,69.6,58.2,29.56,SW,225,10.7,10.7,67,0.00,,CLR,0.12,VWS V14.01,2013-06-02 01:07:00,
2013-06-01 21:12:00,69.4,58.0,29.56,SW,225,10.7,10.7,67,0.00,,CLR,0.12,VWS V14.01,2013-06-02 01:12:00,
2013-06-01 21:17:00,69.4,58.4,29.56,SW,225,10.7,10.7,68,0.00,,CLR,0.12,VWS V14.01,2013-06-02 01:17:00,
2013-06-01 21:22:00,69.4,58.4,29.56,SW,225,10.7,10.7,68,0.00,,CLR,0.12,VWS V14.01,2013-06-02 01:22:00,
2013-06-01 21:27:00,69.3,58.7,29.56,SW,225,10.7,10.7,69,0.00,,CLR,0.12,VWS V14.01,2013-06-02 01:27:00,
2013-06-01 21:32:00,69.3,58.7,29.56,SW,225,10.7,10.7,69,0.00,,CLR,0.12,VWS V14.01,2013-06-02 01:32:00,
2013-06-01 21:37:00,69.1,58.9,29.56,SW,225,10.7,10.7,70,0.00,,CLR,0.12,VWS V14.01,2013-06-02 01:37:00,
2013-06-01 21:42:00,69.1,58.9,29.56,SW,225,10.7,10.7,70,0.00,,CLR,0.12,VWS V14.01,2013-06-02 01:42:00,
2013-06-01 21:47:00,69.1,58.5,29.56,SW,225,10.7,10.7,69,0.00,,CLR,0.12,VWS V14.01,2013-06-02 01:47:00,
2013-06-01 21:52:00,68.9,58.3,29.56,SW,225,10.7,10.7,69,0.00,,CLR,0.12,VWS V14.01,2013-06-02 01:52:00,
2013-06-01 21:57:00,68.7,58.5,29.56,SW,225,10.7,10.7,70,0.00,,CLR,0.12,VWS V14.01,2013-06-02 01:57:00,
2013-06-01 22:00:00,68.7,58.5,29.56,SW,225,10.7,10.7,70,0.00,,CLR,0.12,VWS V14.01,2013-06-02 02:00:00,
2013-06-01 22:03:00,68.7,58.5,29.56,SW,225,10.7,10.7,70,0.00,,CLR,0.12,VWS V14.01,2013-06-02 02:03:00,
2013-06-01 22:08:00,68.5,58.8,29.56,SW,225,10.7,10.7,71,0.00,,CLR,0.12,VWS V14.01,2013-06-02 02:08:00,
2013-06-01 22:13:00,68.5,58.8,29.56,SW,225,10.7,10.7,71,0.00,,CLR,0.12,VWS V14.01,2013-06-02 02:13:00,
2013-06-01 22:18:00,68.4,58.6,29.56,SW,225,10.7,10.7,71,0.00,,CLR,0.12,VWS V14.01,2013-06-02 02:18:00,
2013-06-01 22:23:00,68.2,58.8,29.56,SW,225,10.7,10.7,72,0.00,,CLR,0.12,VWS V14.01,2013-06-02 02:23:00,
2013-06-01 22:28:00,68.2,58.8,29.56,SW,225,10.7,10.7,72,0.00,,CLR,0.12,VWS V14.01,2013-06-02 02:28:00,
2013-06-01 22:33:00,68.0,58.7,29.56,SW,225,10.7,10.7,72,0.00,,CLR,0.12,VWS V14.01,2013-06-02 02:33:00,
2013-06-01 22:38:00,67.8,58.9,29.56,SW,225,10.7,10.7,73,0.00,,CLR,0.12,VWS V14.01,2013-06-02 02:38:00,
2013-06-01 22:43:00,67.6,59.1,29.56,SW,225,10.7,10.7,74,0.00,,CLR,0.12,VWS V14.01,2013-06-02 02:43:00,
2013-06-01 22:48:00,67.5,58.9,29.56,SW,225,10.7,10.7,74,0.00,,CLR,0.12,VWS V14.01,2013-06-02 02:48:00,
2013-06-01 22:53:00,67.5,59.3,29.56,SW,225,10.7,10.7,75,0.00,,CLR,0.12,VWS V14.01,2013-06-02 02:53:00,
2013-06-01 22:58:00,67.5,59.3,29.56,SW,225,10.7,10.7,75,0.00,,CLR,0.12,VWS V14.01,2013-06-02 02:58:00,
2013-06-01 23:00:00,67.3,59.1,29.56,SW,225,10.7,10.7,75,0.00,,CLR,0.12,VWS V14.01,2013-06-02 03:00:00,
2013-06-01 23:03:00,67.3,59.1,29.56,SW,225,10.7,10.7,75,0.00,,CLR,0.12,VWS V14.01,2013-06-02 03:03:00,
2013-06-01 23:08:00,67.3,59.1,29.56,SW,225,10.7,10.7,75,0.00,,CLR,0.12,VWS V14.01,2013-06-02 03:08:00,
2013-06-01 23:13:00,67.3,59.5,29.56,SW,225,10.7,10.7,76,0.00,,CLR,0.12,VWS V14.01,2013-06-02 03:13:00,
2013-06-01 23:18:00,66.9,59.5,29.53,SW,225,10.7,10.7,77,0.00,,CLR,0.12,VWS V14.01,2013-06-02 03:18:00,
2013-06-01 23:23:00,66.7,59.3,29.53,SW,225,10.7,10.7,77,0.00,,CLR,0.12,VWS V14.01,2013-06-02 03:23:00,
2013-06-01 23:28:00,66.7,59.3,29.53,SW,225,10.7,10.7,77,0.00,,CLR,0.12,VWS V14.01,2013-06-02 03:28:00,
2013-06-01 23:33:00,66.7,59.3,29.53,SW,225,10.7,10.7,77,0.00,,CLR,0.12,VWS V14.01,2013-06-02 03:33:00,
2013-06-01 23:38:00,66.6,59.5,29.53,SW,225,10.7,10.7,78,0.00,,CLR,0.12,VWS V14.01,2013-06-02 03:38:00,
2013-06-01 23:43:00,66.7,59.7,29.53,SW,225,10.7,10.7,78,0.00,,CLR,0.12,VWS V14.01,2013-06-02 03:43:00,
2013-06-01 23:48:00,66.7,59.7,29.53,SW,225,10.7,10.7,78,0.00,,CLR,0.12,VWS V14.01,2013-06-02 03:48:00,
2013-06-01 23:53:00,66.7,59.7,29.53,SW,225,10.7,10.7,78,0.00,,CLR,0.12,VWS V14.01,2013-06-02 03:53:00,
2013-06-01 23:58:00,66.9,59.8,29.53,SW,225,10.7,10.7,78,0.00,,CLR,0.12,VWS V14.01,2013-06-02 03:58:00,